Time;durP1;ratioP1;P1;durP2;ratioP2;P2;SDS_P1;SDS_P2;PMS_P1;PMS_P2;Temp;Humidity;BMP_temperature;BMP_pressure;BME280_temperature;BME280_humidity;BME280_pressure;Samples;Min_cycle;Max_cycle;Signal;HPM_P1;HPM_P2
2022/02/11 00:02:17;;;;;;;;;43.25;30.25;;;;;;;;5074746;27;51093;-62
2022/02/11 00:07:56;;;;;;;;;52.75;36.75;;;;;;;;5074623;27;51169;-63
2022/02/11 00:10:40;;;;;;;;;39.50;30.25;;;;;;;;5074473;27;51616;-58
2022/02/11 00:13:24;;;;;;;;;43.75;32.75;;;;;;;;5074906;27;51131;-60
2022/02/11 00:16:09;;;;;;;;;51.25;36.50;;;;;;;;5073734;27;51142;-62
2022/02/11 00:18:53;;;;;;;;;48.50;33.25;;;;;;;;5074814;27;51052;-61
2022/02/11 00:21:38;;;;;;;;;46.75;36.25;;;;;;;;5067348;28;51010;-60
2022/02/11 00:24:23;;;;;;;;;43.50;32.25;;;;;;;;5063223;28;51221;-61
2022/02/11 00:33:12;;;;;;;;;41.25;31.00;;;;;;;;5071555;28;51201;-58
2022/02/11 00:36:03;;;;;;;;;45.50;35.00;;;;;;;;5057959;28;51716;-60
2022/02/11 01:03:01;;;;;;;;;36.25;26.25;;;;;;;;5070440;28;51671;-61
2022/02/11 01:05:46;;;;;;;;;45.25;34.50;;;;;;;;5071224;28;51233;-60
2022/02/11 01:08:30;;;;;;;;;49.25;34.50;;;;;;;;5071814;28;51189;-58
2022/02/11 01:11:25;;;;;;;;;41.50;30.25;;;;;;;;5072011;28;51188;-59
2022/02/11 01:14:10;;;;;;;;;43.00;33.00;;;;;;;;5074416;28;51168;-62
2022/02/11 01:16:57;;;;;;;;;45.75;34.00;;;;;;;;5072285;28;51186;-58
2022/02/11 01:26:04;;;;;;;;;45.50;34.50;;;;;;;;5074791;27;51224;-62
2022/02/11 01:32:13;;;;;;;;;43.75;33.25;;;;;;;;5075314;27;51071;-60
2022/02/11 01:38:04;;;;;;;;;44.25;32.00;;;;;;;;5064227;27;53004;-62
2022/02/11 01:44:09;;;;;;;;;42.50;31.00;;;;;;;;5071843;27;51163;-62
2022/02/11 01:58:57;;;;;;;;;45.75;34.50;;;;;;;;5076705;27;51178;-59
2022/02/11 02:01:41;;;;;;;;;47.75;34.25;;;;;;;;5075757;27;51145;-61
2022/02/11 02:05:10;;;;;;;;;42.25;32.00;;;;;;;;5077085;27;51418;-62
2022/02/11 02:17:34;;;;;;;;;44.25;30.50;;;;;;;;5073013;27;51455;-63
2022/02/11 02:28:37;;;;;;;;;46.25;35.25;;;;;;;;5069598;27;51327;-63
2022/02/11 02:37:15;;;;;;;;;41.25;33.00;;;;;;;;5073656;27;51146;-59
2022/02/11 02:58:23;;;;;;;;;46.50;33.50;;;;;;;;5072011;27;51187;-58
2022/02/11 03:56:31;;;;;;;;;49.25;38.75;;;;;;;;5068333;27;51183;-60
2022/02/11 04:26:26;;;;;;;;;53.00;38.50;;;;;;;;5074244;28;51136;-59
2022/02/11 04:56:09;;;;;;;;;50.75;40.75;;;;;;;;5069801;28;51100;-59
2022/02/11 05:01:56;;;;;;;;;55.50;42.75;;;;;;;;5073779;27;51263;-58
2022/02/11 05:04:40;;;;;;;;;55.25;41.75;;;;;;;;5075450;27;51730;-60
2022/02/11 05:07:26;;;;;;;;;55.00;42.50;;;;;;;;5076057;27;51149;-60
2022/02/11 05:10:13;;;;;;;;;51.50;38.25;;;;;;;;5072938;27;51069;-57
2022/02/11 05:12:57;;;;;;;;;47.25;38.50;;;;;;;;5075512;27;51610;-58
2022/02/11 05:15:42;;;;;;;;;55.75;42.75;;;;;;;;5079022;27;51597;-60
2022/02/11 05:18:26;;;;;;;;;51.75;39.00;;;;;;;;5072366;27;51141;-58
2022/02/11 05:21:11;;;;;;;;;54.75;41.50;;;;;;;;5069907;27;51410;-62
2022/02/11 05:23:55;;;;;;;;;51.00;38.00;;;;;;;;5078053;27;52834;-59
2022/02/11 05:26:39;;;;;;;;;55.75;39.75;;;;;;;;5078103;27;51566;-59
2022/02/11 05:29:24;;;;;;;;;51.50;39.50;;;;;;;;5078337;27;51548;-62
2022/02/11 05:32:08;;;;;;;;;56.25;41.00;;;;;;;;5071964;27;51103;-62
2022/02/11 05:34:53;;;;;;;;;48.00;38.75;;;;;;;;5080372;27;51539;-59
2022/02/11 05:37:37;;;;;;;;;54.50;43.50;;;;;;;;5073661;27;51849;-57
2022/02/11 05:40:22;;;;;;;;;55.75;42.75;;;;;;;;5072589;27;51733;-63
2022/02/11 05:43:06;;;;;;;;;58.00;43.25;;;;;;;;5075477;27;51113;-58
2022/02/11 05:45:51;;;;;;;;;58.00;42.25;;;;;;;;5071973;27;51251;-60
2022/02/11 05:48:38;;;;;;;;;59.25;42.75;;;;;;;;5075510;27;51168;-62
2022/02/11 05:51:22;;;;;;;;;65.50;47.00;;;;;;;;5071839;27;51174;-61
2022/02/11 05:54:07;;;;;;;;;62.25;45.25;;;;;;;;5075232;27;52655;-62
2022/02/11 05:56:51;;;;;;;;;62.50;46.00;;;;;;;;5075197;27;51125;-61
2022/02/11 05:59:36;;;;;;;;;60.25;44.25;;;;;;;;5073089;27;51171;-61
2022/02/11 06:02:20;;;;;;;;;58.00;45.25;;;;;;;;5072096;27;51228;-60
2022/02/11 06:05:05;;;;;;;;;59.75;42.25;;;;;;;;5072403;27;51661;-59
2022/02/11 06:07:49;;;;;;;;;63.75;46.00;;;;;;;;5074040;27;51181;-62
2022/02/11 06:10:33;;;;;;;;;62.75;46.75;;;;;;;;5074823;27;51208;-60
2022/02/11 06:13:18;;;;;;;;;57.25;45.25;;;;;;;;5076540;27;51157;-59
2022/02/11 06:16:03;;;;;;;;;62.25;47.75;;;;;;;;5078563;27;51138;-62
2022/02/11 06:18:47;;;;;;;;;61.25;45.75;;;;;;;;5076856;27;51144;-60
2022/02/11 06:21:32;;;;;;;;;63.00;46.75;;;;;;;;5060813;27;51165;-59
2022/02/11 06:24:16;;;;;;;;;56.25;43.00;;;;;;;;5073271;27;51181;-59
2022/02/11 06:27:01;;;;;;;;;62.00;45.75;;;;;;;;5077975;27;51290;-60
2022/02/11 06:29:46;;;;;;;;;63.25;46.50;;;;;;;;5075038;27;51214;-58
2022/02/11 06:32:31;;;;;;;;;64.25;47.75;;;;;;;;5061960;27;51272;-60
2022/02/11 06:35:15;;;;;;;;;63.75;50.25;;;;;;;;5070977;27;51108;-60
2022/02/11 06:38:00;;;;;;;;;69.75;53.00;;;;;;;;5075662;27;51173;-59
2022/02/11 06:40:44;;;;;;;;;71.25;52.00;;;;;;;;5075684;27;51066;-63
2022/02/11 06:43:29;;;;;;;;;67.00;48.00;;;;;;;;5076754;27;51739;-59
2022/02/11 06:46:15;;;;;;;;;63.25;47.75;;;;;;;;5073434;27;51186;-50
2022/02/11 06:48:59;;;;;;;;;62.25;48.00;;;;;;;;5081034;27;51095;-51
2022/02/11 06:51:44;;;;;;;;;65.00;47.50;;;;;;;;5080727;27;51083;-51
2022/02/11 06:54:28;;;;;;;;;63.50;48.00;;;;;;;;5081036;27;51582;-53
2022/02/11 06:57:13;;;;;;;;;66.75;49.50;;;;;;;;5078518;27;51177;-53
2022/02/11 06:59:57;;;;;;;;;64.25;48.25;;;;;;;;5075130;27;51120;-55
2022/02/11 07:02:41;;;;;;;;;66.75;50.50;;;;;;;;5063573;27;51528;-52
2022/02/11 07:05:27;;;;;;;;;62.25;48.50;;;;;;;;5060120;28;51181;-51
2022/02/11 07:08:11;;;;;;;;;61.50;44.75;;;;;;;;5080446;27;51541;-52
2022/02/11 07:10:57;;;;;;;;;61.50;47.00;;;;;;;;5080748;27;51128;-52
2022/02/11 07:13:41;;;;;;;;;61.25;46.50;;;;;;;;5079225;27;51196;-52
2022/02/11 07:16:26;;;;;;;;;62.75;45.75;;;;;;;;5061958;27;51130;-53
2022/02/11 07:19:10;;;;;;;;;65.00;49.25;;;;;;;;5072965;27;52125;-53
2022/02/11 07:21:55;;;;;;;;;62.00;47.50;;;;;;;;5079319;27;51147;-49
2022/02/11 07:24:39;;;;;;;;;64.00;47.50;;;;;;;;5080532;27;51199;-51
2022/02/11 07:27:24;;;;;;;;;67.50;49.75;;;;;;;;5080053;27;51166;-52
2022/02/11 07:30:08;;;;;;;;;59.50;47.75;;;;;;;;5079998;27;51164;-52
2022/02/11 07:32:52;;;;;;;;;66.50;49.50;;;;;;;;5075946;27;51990;-49
2022/02/11 07:35:37;;;;;;;;;69.75;52.50;;;;;;;;5074933;27;51199;-55
2022/02/11 07:38:21;;;;;;;;;68.25;50.50;;;;;;;;5079202;27;50990;-50
2022/02/11 07:41:06;;;;;;;;;66.50;48.25;;;;;;;;5068182;27;51693;-53
2022/02/11 07:43:50;;;;;;;;;63.00;47.50;;;;;;;;5065422;27;51032;-51
2022/02/11 07:46:35;;;;;;;;;65.00;48.25;;;;;;;;5069079;27;51254;-55
2022/02/11 07:49:19;;;;;;;;;67.75;50.75;;;;;;;;5057983;27;51341;-52
2022/02/11 07:52:05;;;;;;;;;80.75;71.00;;;;;;;;5072318;27;51398;-53
2022/02/11 07:54:49;;;;;;;;;76.75;58.75;;;;;;;;5075081;27;51233;-51
2022/02/11 07:57:33;;;;;;;;;90.50;76.50;;;;;;;;5076378;27;51603;-53
2022/02/11 08:00:18;;;;;;;;;78.00;64.50;;;;;;;;5063359;28;50988;-53
2022/02/11 08:03:02;;;;;;;;;74.00;53.25;;;;;;;;5060150;27;51082;-54
2022/02/11 08:05:47;;;;;;;;;63.25;48.50;;;;;;;;5075234;27;51180;-53
2022/02/11 08:08:31;;;;;;;;;72.75;56.00;;;;;;;;5072664;27;51940;-50
2022/02/11 08:11:16;;;;;;;;;73.50;58.75;;;;;;;;5077408;27;50996;-51
2022/02/11 08:14:00;;;;;;;;;74.00;62.25;;;;;;;;5060606;27;51107;-49
2022/02/11 08:16:47;;;;;;;;;75.00;59.25;;;;;;;;5058546;28;51355;-54
2022/02/11 08:19:31;;;;;;;;;75.75;58.75;;;;;;;;5058496;27;51076;-53
2022/02/11 08:22:16;;;;;;;;;67.75;50.50;;;;;;;;5058390;28;51611;-51
2022/02/11 08:25:01;;;;;;;;;69.75;50.25;;;;;;;;5059466;28;51530;-54
2022/02/11 08:27:47;;;;;;;;;66.75;48.50;;;;;;;;5075942;28;51539;-51
2022/02/11 08:30:32;;;;;;;;;63.75;47.00;;;;;;;;5072813;28;51088;-51
2022/02/11 08:33:24;;;;;;;;;61.75;46.50;;;;;;;;5072934;27;51771;-53
2022/02/11 08:36:08;;;;;;;;;60.75;46.75;;;;;;;;5053107;27;51134;-52
2022/02/11 08:38:52;;;;;;;;;57.50;45.25;;;;;;;;5079264;27;51129;-50
2022/02/11 08:41:37;;;;;;;;;61.00;45.25;;;;;;;;5074158;27;51043;-54
2022/02/11 08:44:21;;;;;;;;;60.50;45.50;;;;;;;;5066571;27;51327;-53
2022/02/11 08:47:05;;;;;;;;;56.50;44.25;;;;;;;;5075990;27;51705;-54
2022/02/11 08:49:50;;;;;;;;;63.75;46.75;;;;;;;;5072286;27;51147;-54
2022/02/11 08:52:35;;;;;;;;;60.00;44.25;;;;;;;;5065963;27;51562;-54
2022/02/11 08:55:22;;;;;;;;;62.25;44.00;;;;;;;;5071851;27;51074;-54
2022/02/11 08:58:06;;;;;;;;;53.50;41.50;;;;;;;;5065787;27;51685;-50
2022/02/11 09:00:51;;;;;;;;;60.25;46.00;;;;;;;;5077862;27;51329;-52
2022/02/11 09:03:35;;;;;;;;;59.75;46.25;;;;;;;;5070471;27;51252;-54
2022/02/11 09:06:20;;;;;;;;;60.00;43.75;;;;;;;;5074919;27;51221;-53
2022/02/11 09:09:05;;;;;;;;;70.75;50.00;;;;;;;;5066433;27;51159;-54
2022/02/11 09:11:49;;;;;;;;;64.50;47.75;;;;;;;;5062590;28;51562;-51
2022/02/11 09:14:34;;;;;;;;;61.00;44.25;;;;;;;;5063149;27;51241;-53
2022/02/11 09:17:18;;;;;;;;;62.25;47.00;;;;;;;;5080608;27;51132;-54
2022/02/11 09:20:03;;;;;;;;;58.75;45.00;;;;;;;;5065026;27;51128;-54
2022/02/11 09:22:56;;;;;;;;;59.75;45.25;;;;;;;;5104356;22;52010;-53
2022/02/11 09:25:41;;;;;;;;;60.50;46.50;;;;;;;;5069131;27;51027;-52
2022/02/11 09:28:26;;;;;;;;;64.25;47.25;;;;;;;;5042788;28;51080;-53
2022/02/11 09:31:11;;;;;;;;;60.00;46.75;;;;;;;;5037478;28;51169;-53
2022/02/11 09:34:03;;;;;;;;;60.25;46.25;;;;;;;;5039705;28;51241;-53
2022/02/11 09:36:47;;;;;;;;;60.50;45.00;;;;;;;;5040347;28;51525;-49
2022/02/11 09:39:31;;;;;;;;;57.50;45.50;;;;;;;;5040935;28;51203;-51
2022/02/11 09:42:17;;;;;;;;;58.25;44.00;;;;;;;;5040190;28;51487;-52
2022/02/11 09:45:01;;;;;;;;;56.75;45.00;;;;;;;;5039075;28;51115;-51
2022/02/11 09:47:45;;;;;;;;;58.25;44.50;;;;;;;;5040109;28;51757;-52
2022/02/11 09:50:31;;;;;;;;;61.25;46.75;;;;;;;;5036147;28;51091;-53
2022/02/11 09:53:15;;;;;;;;;60.25;46.25;;;;;;;;5039086;28;51245;-52
2022/02/11 09:56:00;;;;;;;;;62.25;48.00;;;;;;;;5040796;28;51535;-53
2022/02/11 09:58:51;;;;;;;;;60.25;47.25;;;;;;;;5040833;28;51208;-52
2022/02/11 10:01:37;;;;;;;;;63.25;47.75;;;;;;;;5040579;28;51618;-51
2022/02/11 10:04:25;;;;;;;;;66.25;48.75;;;;;;;;5038412;28;51216;-51
2022/02/11 10:07:12;;;;;;;;;56.50;44.50;;;;;;;;5032589;28;51504;-50
2022/02/11 10:09:59;;;;;;;;;63.00;47.75;;;;;;;;5039806;28;51205;-51
2022/02/11 10:12:43;;;;;;;;;64.50;46.75;;;;;;;;5039260;28;51626;-54
2022/02/11 10:15:27;;;;;;;;;59.75;45.25;;;;;;;;5038985;28;51218;-48
2022/02/11 10:18:12;;;;;;;;;61.50;46.25;;;;;;;;5040254;28;51057;-52
2022/02/11 10:21:00;;;;;;;;;62.50;45.50;;;;;;;;5040528;28;51377;-53
2022/02/11 10:23:44;;;;;;;;;58.00;45.00;;;;;;;;5039794;28;51257;-50
2022/02/11 10:26:29;;;;;;;;;52.00;39.00;;;;;;;;5047124;27;51554;-50
2022/02/11 10:29:15;;;;;;;;;49.50;36.00;;;;;;;;5060490;28;51083;-50
2022/02/11 10:32:00;;;;;;;;;58.75;42.00;;;;;;;;5075265;27;51568;-52
2022/02/11 10:34:51;;;;;;;;;52.75;39.75;;;;;;;;5080202;27;51143;-50
2022/02/11 10:37:36;;;;;;;;;51.00;39.00;;;;;;;;5080363;27;51166;-51
2022/02/11 10:40:28;;;;;;;;;53.00;38.50;;;;;;;;5080265;27;51090;-53
2022/02/11 10:43:21;;;;;;;;;54.25;40.00;;;;;;;;5081106;27;51414;-50
2022/02/11 10:46:14;;;;;;;;;51.00;39.00;;;;;;;;5080203;27;51357;-53
2022/02/11 10:48:59;;;;;;;;;53.75;40.50;;;;;;;;5080437;27;51064;-52
2022/02/11 10:51:47;;;;;;;;;56.00;41.25;;;;;;;;5080007;27;51125;-52
2022/02/11 10:54:35;;;;;;;;;57.00;42.75;;;;;;;;5072322;27;51545;-51
2022/02/11 10:57:27;;;;;;;;;54.00;41.25;;;;;;;;5066081;27;51121;-52
2022/02/11 11:00:17;;;;;;;;;55.00;40.00;;;;;;;;5060783;27;51123;-53
2022/02/11 11:03:03;;;;;;;;;52.75;39.00;;;;;;;;5073161;27;51409;-50
2022/02/11 11:05:47;;;;;;;;;55.75;42.00;;;;;;;;5058428;28;51113;-52
2022/02/11 11:08:37;;;;;;;;;49.75;36.00;;;;;;;;5073900;27;51074;-52
2022/02/11 11:11:24;;;;;;;;;59.00;43.25;;;;;;;;5079346;27;51162;-52
2022/02/11 11:14:08;;;;;;;;;55.50;41.50;;;;;;;;5067591;27;51128;-53
2022/02/11 11:16:54;;;;;;;;;58.00;43.25;;;;;;;;5064593;27;51102;-54
2022/02/11 11:19:38;;;;;;;;;59.25;41.75;;;;;;;;5063706;27;51081;-53
2022/02/11 11:22:27;;;;;;;;;54.50;40.00;;;;;;;;5058274;28;51413;-52
2022/02/11 11:25:11;;;;;;;;;53.25;39.25;;;;;;;;5059902;28;51170;-52
2022/02/11 11:27:58;;;;;;;;;57.50;43.00;;;;;;;;5067853;27;51630;-53
2022/02/11 11:30:52;;;;;;;;;58.75;42.25;;;;;;;;5059458;28;51041;-51
2022/02/11 11:33:37;;;;;;;;;58.25;45.25;;;;;;;;5067814;27;51118;-53
2022/02/11 11:36:21;;;;;;;;;61.00;44.75;;;;;;;;5059462;28;51213;-52
2022/02/11 11:39:06;;;;;;;;;60.00;45.00;;;;;;;;5078760;27;51201;-52
2022/02/11 11:42:02;;;;;;;;;63.50;44.75;;;;;;;;5080297;27;51064;-52
2022/02/11 11:44:54;;;;;;;;;56.00;41.75;;;;;;;;5056541;27;51261;-54
2022/02/11 11:47:43;;;;;;;;;58.00;44.75;;;;;;;;5066305;27;51225;-51
2022/02/11 11:50:31;;;;;;;;;60.00;45.50;;;;;;;;5064606;27;51342;-54
2022/02/11 11:53:26;;;;;;;;;54.50;40.25;;;;;;;;5063438;27;51697;-53
2022/02/11 11:56:30;;;;;;;;;54.00;41.00;;;;;;;;5067230;27;51245;-54
2022/02/11 11:59:15;;;;;;;;;59.75;41.50;;;;;;;;5075659;27;51080;-55
2022/02/11 12:02:00;;;;;;;;;53.50;39.75;;;;;;;;5066859;27;51140;-53
2022/02/11 12:04:44;;;;;;;;;58.25;41.75;;;;;;;;5059755;28;52176;-51
2022/02/11 12:07:34;;;;;;;;;40.00;33.75;;;;;;;;5075191;27;51143;-49
2022/02/11 12:10:18;;;;;;;;;47.25;36.50;;;;;;;;5065461;27;51071;-49
2022/02/11 12:13:03;;;;;;;;;47.00;32.75;;;;;;;;5077884;27;51036;-53
2022/02/11 12:15:48;;;;;;;;;42.00;32.00;;;;;;;;5079145;27;51176;-54
2022/02/11 12:18:32;;;;;;;;;48.25;31.00;;;;;;;;5078968;27;51017;-52
2022/02/11 12:21:17;;;;;;;;;39.75;28.75;;;;;;;;5070504;27;51557;-52
2022/02/11 12:30:25;;;;;;;;;45.25;32.50;;;;;;;;5078649;28;51332;-53
2022/02/11 12:33:09;;;;;;;;;54.50;38.50;;;;;;;;5078715;28;51112;-53
2022/02/11 12:36:06;;;;;;;;;49.00;36.50;;;;;;;;5078964;28;51078;-53
2022/02/11 12:38:57;;;;;;;;;46.00;33.50;;;;;;;;5062057;28;52084;-52
2022/02/11 12:41:45;;;;;;;;;44.25;34.25;;;;;;;;5068344;28;51162;-53
2022/02/11 12:44:31;;;;;;;;;50.75;36.00;;;;;;;;5077503;28;51800;-53
2022/02/11 12:47:15;;;;;;;;;49.25;36.75;;;;;;;;5076470;28;51270;-51
2022/02/11 12:50:00;;;;;;;;;46.50;35.25;;;;;;;;5060419;28;51193;-49
2022/02/11 12:52:44;;;;;;;;;50.50;37.75;;;;;;;;5078113;28;50990;-51
2022/02/11 12:55:30;;;;;;;;;47.25;31.75;;;;;;;;5077669;28;51158;-52
2022/02/11 12:58:14;;;;;;;;;50.25;35.50;;;;;;;;5077017;28;51184;-54
2022/02/11 13:00:59;;;;;;;;;46.50;33.75;;;;;;;;5072276;28;51161;-51
2022/02/11 13:39:42;;;;;;;;;46.50;32.50;;;;;;;;4893899;27;1763815;-59
2022/02/11 13:42:26;;;;;;;;;48.75;35.25;;;;;;;;6127371;23;51042;-58
2022/02/11 13:45:12;;;;;;;;;37.75;32.00;;;;;;;;6131356;23;51066;-55
2022/02/11 13:48:02;;;;;;;;;46.75;36.25;;;;;;;;6131134;23;51137;-54
2022/02/11 13:51:05;;;;;;;;;43.50;32.75;;;;;;;;6131457;23;51547;-52
2022/02/11 13:53:53;;;;;;;;;44.00;32.75;;;;;;;;6131072;23;51051;-54
2022/02/11 13:56:38;;;;;;;;;46.00;35.00;;;;;;;;6131789;23;51026;-55
2022/02/11 13:59:27;;;;;;;;;40.50;31.25;;;;;;;;6130026;23;51518;-58
2022/02/11 14:02:11;;;;;;;;;48.00;37.25;;;;;;;;6131108;23;51599;-55
2022/02/11 14:05:00;;;;;;;;;43.50;34.75;;;;;;;;6130875;23;51101;-52
2022/02/11 14:07:55;;;;;;;;;50.75;34.50;;;;;;;;6131474;23;50956;-56
2022/02/11 14:10:40;;;;;;;;;49.25;35.50;;;;;;;;6131021;23;51488;-57
2022/02/11 14:13:24;;;;;;;;;46.50;34.75;;;;;;;;6130688;23;51049;-54
2022/02/11 14:16:09;;;;;;;;;44.50;32.25;;;;;;;;6130938;23;51560;-55
2022/02/11 14:18:53;;;;;;;;;45.00;31.75;;;;;;;;6129882;23;51070;-54
2022/02/11 14:21:37;;;;;;;;;44.75;34.75;;;;;;;;6132223;23;51035;-55
2022/02/11 14:24:24;;;;;;;;;42.75;31.00;;;;;;;;6130509;23;51395;-54
2022/02/11 14:27:08;;;;;;;;;45.75;33.75;;;;;;;;6130664;23;51708;-54
2022/02/11 14:29:52;;;;;;;;;42.00;31.75;;;;;;;;6131392;23;51087;-53
2022/02/11 14:32:37;;;;;;;;;45.50;32.25;;;;;;;;6131405;23;51074;-56
2022/02/11 14:35:21;;;;;;;;;46.25;32.50;;;;;;;;6130708;23;51031;-55
2022/02/11 14:38:06;;;;;;;;;40.75;30.75;;;;;;;;6130796;22;51016;-54
2022/02/11 14:43:53;;;;;;;;;46.50;35.00;;;;;;;;6124058;23;51319;-54
2022/02/11 14:46:37;;;;;;;;;51.50;34.75;;;;;;;;6124965;23;51084;-56
2022/02/11 14:49:22;;;;;;;;;29.00;18.75;;;;;;;;6124474;23;50999;-53
2022/02/11 14:52:08;;;;;;;;;45.00;33.75;;;;;;;;6124623;23;51546;-57
2022/02/11 14:54:54;;;;;;;;;46.50;34.50;;;;;;;;6124527;23;50972;-54
2022/02/11 14:57:38;;;;;;;;;46.75;34.50;;;;;;;;6124916;23;51122;-51
2022/02/11 15:00:23;;;;;;;;;48.25;34.50;;;;;;;;6122719;23;51238;-55
2022/02/11 15:03:08;;;;;;;;;52.00;38.00;;;;;;;;6124641;23;51027;-54
2022/02/11 15:05:52;;;;;;;;;47.50;33.75;;;;;;;;6123878;23;50981;-56
2022/02/11 15:08:36;;;;;;;;;48.25;35.50;;;;;;;;6124181;23;51087;-55
2022/02/11 15:11:21;;;;;;;;;46.25;36.00;;;;;;;;6124487;23;51035;-56
2022/02/11 15:14:05;;;;;;;;;49.50;35.75;;;;;;;;6124247;23;51346;-58
2022/02/11 15:16:50;;;;;;;;;46.50;34.00;;;;;;;;6124606;23;51035;-53
2022/02/11 15:19:35;;;;;;;;;44.50;34.00;;;;;;;;6124043;23;51042;-54
2022/02/11 15:22:19;;;;;;;;;39.00;30.25;;;;;;;;6123989;23;51130;-54
2022/02/11 15:25:04;;;;;;;;;42.75;30.50;;;;;;;;6123988;23;51384;-57
2022/02/11 15:27:48;;;;;;;;;48.00;33.00;;;;;;;;6123928;23;51117;-54
2022/02/11 15:30:33;;;;;;;;;46.00;32.00;;;;;;;;6123637;23;51197;-54
2022/02/11 15:33:18;;;;;;;;;46.50;34.75;;;;;;;;6122573;23;51096;-57
2022/02/11 15:36:02;;;;;;;;;53.00;36.00;;;;;;;;6124181;23;51063;-54
2022/02/11 15:38:47;;;;;;;;;46.00;35.00;;;;;;;;6137106;22;51152;-56
2022/02/11 15:41:31;;;;;;;;;44.50;32.00;;;;;;;;6124540;23;51106;-55
2022/02/11 15:44:15;;;;;;;;;47.00;31.00;;;;;;;;6123518;23;51137;-55
2022/02/11 15:46:59;;;;;;;;;45.50;34.50;;;;;;;;6121566;23;51235;-58
2022/02/11 15:49:44;;;;;;;;;42.00;32.50;;;;;;;;6123186;23;51117;-56
2022/02/11 15:52:29;;;;;;;;;38.25;33.00;;;;;;;;6124137;23;51205;-56
2022/02/11 15:55:15;;;;;;;;;48.75;35.00;;;;;;;;6123664;23;51670;-56
2022/02/11 15:57:59;;;;;;;;;46.00;33.25;;;;;;;;6123372;23;51112;-54
2022/02/11 16:00:44;;;;;;;;;46.25;33.25;;;;;;;;6124672;23;51072;-57
2022/02/11 16:03:29;;;;;;;;;52.00;35.50;;;;;;;;6123214;23;51149;-57
2022/02/11 16:06:13;;;;;;;;;50.50;36.75;;;;;;;;6124422;23;51055;-56
2022/02/11 16:08:57;;;;;;;;;43.75;33.50;;;;;;;;6123788;23;51015;-55
2022/02/11 16:11:41;;;;;;;;;50.25;37.50;;;;;;;;6123701;23;50984;-54
2022/02/11 16:14:26;;;;;;;;;40.00;32.25;;;;;;;;6124165;23;50948;-57
2022/02/11 16:17:11;;;;;;;;;49.75;35.75;;;;;;;;6124038;23;51049;-53
2022/02/11 16:19:55;;;;;;;;;49.50;30.75;;;;;;;;6123710;23;51529;-57
2022/02/11 16:22:39;;;;;;;;;49.00;31.25;;;;;;;;6123717;23;51162;-55
2022/02/11 16:25:24;;;;;;;;;48.00;35.00;;;;;;;;6124044;23;51152;-54
2022/02/11 16:28:09;;;;;;;;;48.00;31.50;;;;;;;;6124041;23;51013;-58
2022/02/11 16:30:54;;;;;;;;;45.25;34.25;;;;;;;;6124133;23;51036;-56
2022/02/11 16:33:38;;;;;;;;;51.00;33.50;;;;;;;;6123678;23;51163;-53
2022/02/11 16:36:23;;;;;;;;;52.00;35.25;;;;;;;;6123629;23;51055;-52
2022/02/11 16:39:10;;;;;;;;;46.50;35.50;;;;;;;;6124020;22;51323;-57
2022/02/11 16:41:55;;;;;;;;;45.25;33.75;;;;;;;;6123426;23;51066;-52
2022/02/11 16:44:39;;;;;;;;;47.50;37.75;;;;;;;;6123436;23;51459;-55
2022/02/11 16:47:24;;;;;;;;;58.50;44.25;;;;;;;;6123556;23;50993;-54
2022/02/11 16:50:08;;;;;;;;;61.50;45.75;;;;;;;;6123774;23;51094;-55
2022/02/11 16:52:52;;;;;;;;;57.75;42.75;;;;;;;;6123730;23;51132;-55
2022/02/11 16:55:37;;;;;;;;;53.75;40.00;;;;;;;;6123345;23;51054;-56
2022/02/11 16:58:21;;;;;;;;;56.75;41.00;;;;;;;;6123606;23;51403;-54
2022/02/11 17:01:06;;;;;;;;;52.50;38.50;;;;;;;;6123667;23;51068;-55
2022/02/11 17:03:50;;;;;;;;;61.75;43.50;;;;;;;;6122262;23;51338;-56
2022/02/11 17:06:35;;;;;;;;;47.75;36.00;;;;;;;;6124128;23;51122;-53
2022/02/11 17:09:19;;;;;;;;;50.75;39.75;;;;;;;;6123094;23;51059;-54
2022/02/11 17:12:04;;;;;;;;;51.25;38.25;;;;;;;;6123577;23;51058;-55
2022/02/11 17:14:48;;;;;;;;;56.50;38.50;;;;;;;;6124047;23;51119;-54
2022/02/11 17:17:33;;;;;;;;;58.50;40.25;;;;;;;;6123092;23;51405;-55
2022/02/11 17:20:18;;;;;;;;;51.25;37.25;;;;;;;;6123724;23;51608;-52
2022/02/11 17:23:03;;;;;;;;;49.25;37.00;;;;;;;;6122943;23;51149;-59
2022/02/11 17:25:47;;;;;;;;;46.25;35.00;;;;;;;;6121851;23;51028;-56
2022/02/11 17:28:32;;;;;;;;;50.00;36.25;;;;;;;;6121474;23;51795;-53
2022/02/11 17:31:16;;;;;;;;;46.00;35.25;;;;;;;;6121841;23;51191;-57
2022/02/11 17:34:01;;;;;;;;;55.50;38.75;;;;;;;;6120486;23;51651;-55
2022/02/11 17:36:45;;;;;;;;;39.75;32.25;;;;;;;;6121094;23;51098;-55
2022/02/11 17:39:33;;;;;;;;;55.50;38.50;;;;;;;;6134601;22;51055;-54
2022/02/11 17:42:17;;;;;;;;;53.25;38.50;;;;;;;;6123971;23;51059;-55
2022/02/11 17:45:02;;;;;;;;;48.50;35.50;;;;;;;;6121420;23;51601;-53
2022/02/11 17:47:46;;;;;;;;;52.25;39.00;;;;;;;;6120146;23;51226;-55
2022/02/11 17:50:31;;;;;;;;;49.50;38.25;;;;;;;;6121352;23;51039;-54
2022/02/11 17:53:15;;;;;;;;;48.25;35.25;;;;;;;;6122257;23;51031;-55
2022/02/11 17:56:00;;;;;;;;;51.00;39.00;;;;;;;;6121427;23;51134;-56
2022/02/11 17:58:44;;;;;;;;;45.75;37.75;;;;;;;;6115686;23;51540;-56
2022/02/11 18:01:28;;;;;;;;;52.25;37.00;;;;;;;;6121213;23;51106;-56
2022/02/11 18:04:13;;;;;;;;;48.50;35.00;;;;;;;;6121678;23;51068;-56
2022/02/11 18:06:57;;;;;;;;;52.25;37.00;;;;;;;;6120382;23;51419;-55
2022/02/11 18:09:42;;;;;;;;;47.50;33.50;;;;;;;;6120326;23;51613;-55
2022/02/11 18:12:27;;;;;;;;;48.25;35.00;;;;;;;;6120577;23;51039;-56
2022/02/11 18:15:11;;;;;;;;;44.75;33.00;;;;;;;;6122189;23;51086;-56
2022/02/11 18:17:55;;;;;;;;;45.50;35.25;;;;;;;;6121041;23;51412;-56
2022/02/11 18:20:40;;;;;;;;;54.00;38.50;;;;;;;;6122925;23;51067;-54
2022/02/11 18:23:24;;;;;;;;;48.00;37.00;;;;;;;;6121584;23;51662;-58
2022/02/11 18:26:09;;;;;;;;;50.75;37.00;;;;;;;;6122633;23;51170;-53
2022/02/11 18:28:55;;;;;;;;;52.75;36.50;;;;;;;;6122608;23;50987;-53
2022/02/11 18:31:39;;;;;;;;;51.25;37.00;;;;;;;;6123768;23;51071;-52
2022/02/11 18:34:26;;;;;;;;;55.25;41.25;;;;;;;;6123780;23;51437;-56
2022/02/11 18:37:11;;;;;;;;;61.75;45.00;;;;;;;;6123420;23;51090;-57
2022/02/11 18:39:55;;;;;;;;;54.50;40.50;;;;;;;;6122236;22;50945;-53
2022/02/11 18:42:40;;;;;;;;;59.25;45.50;;;;;;;;6119699;23;51041;-56
2022/02/11 18:45:24;;;;;;;;;65.00;46.00;;;;;;;;6121559;23;50989;-59
2022/02/11 18:48:09;;;;;;;;;57.00;42.75;;;;;;;;6123842;23;51584;-54
2022/02/11 18:50:54;;;;;;;;;54.00;42.00;;;;;;;;6123453;23;51075;-55
2022/02/11 18:53:38;;;;;;;;;48.25;35.75;;;;;;;;6123382;23;51005;-55
2022/02/11 18:56:22;;;;;;;;;50.00;38.75;;;;;;;;6123705;23;51496;-56
2022/02/11 19:02:12;;;;;;;;;53.75;39.00;;;;;;;;6121936;23;51008;-56
2022/02/11 19:04:57;;;;;;;;;54.50;40.00;;;;;;;;6122754;23;51086;-55
2022/02/11 19:07:41;;;;;;;;;37.50;31.50;;;;;;;;6122539;23;51430;-56
2022/02/11 19:10:26;;;;;;;;;51.25;37.75;;;;;;;;6123303;23;51079;-54
2022/02/11 19:13:10;;;;;;;;;51.00;38.00;;;;;;;;6120486;23;51752;-56
2022/02/11 19:15:54;;;;;;;;;55.25;40.25;;;;;;;;6122914;23;51214;-57
2022/02/11 19:18:39;;;;;;;;;47.25;36.25;;;;;;;;6122830;23;51021;-56
2022/02/11 19:21:24;;;;;;;;;52.75;37.75;;;;;;;;6123219;23;51121;-58
2022/02/11 19:24:08;;;;;;;;;50.25;37.00;;;;;;;;6123111;23;51512;-57
2022/02/11 19:26:53;;;;;;;;;51.00;35.75;;;;;;;;6123091;23;51134;-56
2022/02/11 19:29:37;;;;;;;;;47.50;37.25;;;;;;;;6121782;23;51078;-55
2022/02/11 19:32:22;;;;;;;;;48.50;37.25;;;;;;;;6121571;23;51050;-55
2022/02/11 19:35:07;;;;;;;;;49.25;35.00;;;;;;;;6123872;23;50967;-56
2022/02/11 19:37:52;;;;;;;;;48.50;35.50;;;;;;;;6123075;23;51749;-56
2022/02/11 19:40:36;;;;;;;;;52.50;39.50;;;;;;;;6122878;23;51134;-54
2022/02/11 19:43:20;;;;;;;;;49.25;35.00;;;;;;;;6123068;23;51047;-56
2022/02/11 19:46:06;;;;;;;;;44.50;37.00;;;;;;;;6122966;23;50925;-57
2022/02/11 19:48:50;;;;;;;;;46.00;36.75;;;;;;;;6123873;23;51673;-57
2022/02/11 19:51:35;;;;;;;;;49.25;39.00;;;;;;;;6124211;23;51090;-56
2022/02/11 19:54:19;;;;;;;;;47.75;35.25;;;;;;;;6101274;23;51384;-57
2022/02/11 19:57:04;;;;;;;;;56.25;37.75;;;;;;;;6122753;23;51358;-55
2022/02/11 19:59:49;;;;;;;;;46.50;34.75;;;;;;;;6122590;23;51103;-56
2022/02/11 20:02:33;;;;;;;;;50.00;34.00;;;;;;;;6122622;23;51326;-54
2022/02/11 20:05:18;;;;;;;;;52.50;37.00;;;;;;;;6122289;23;51190;-58
2022/02/11 20:08:03;;;;;;;;;50.00;36.50;;;;;;;;6123075;23;51050;-57
2022/02/11 20:10:47;;;;;;;;;49.50;38.00;;;;;;;;6122329;23;51004;-57
2022/02/11 20:13:31;;;;;;;;;55.00;40.50;;;;;;;;6119302;23;51664;-57
2022/02/11 20:16:18;;;;;;;;;50.25;38.00;;;;;;;;6121774;23;51079;-57
2022/02/11 20:19:03;;;;;;;;;51.00;38.25;;;;;;;;6119771;23;51179;-59
2022/02/11 20:21:48;;;;;;;;;55.00;39.00;;;;;;;;6122702;23;51435;-57
2022/02/11 20:24:32;;;;;;;;;50.00;38.00;;;;;;;;6123001;23;51038;-57
2022/02/11 20:27:17;;;;;;;;;49.25;38.75;;;;;;;;6122488;23;51656;-58